createdAt,value
2022-12-31T00:00:49.119Z,9.278343
2022-12-31T00:01:49.237Z,9.278404
2022-12-31T00:02:49.127Z,9.278425
2022-12-31T00:03:49.046Z,9.278427
2022-12-31T00:04:48.997Z,9.278429
2022-12-31T00:05:48.993Z,9.278521
2022-12-31T00:06:49.073Z,9.278488
2022-12-31T00:07:48.965Z,9.278502
2022-12-31T00:08:49.012Z,9.278352
2022-12-31T00:09:49.028Z,9.278503
2022-12-31T00:10:48.875Z,9.278390
2022-12-31T00:11:48.921Z,9.278312
2022-12-31T00:12:48.857Z,9.278310
2022-12-31T00:13:48.956Z,9.278259
2022-12-31T00:14:48.814Z,9.278244
2022-12-31T00:15:48.806Z,9.278243
2022-12-31T00:16:48.836Z,9.278196
2022-12-31T00:17:48.766Z,9.278244
2022-12-31T00:18:48.756Z,9.278422
2022-12-31T00:19:48.725Z,9.278280
2022-12-31T00:20:48.724Z,9.278351
2022-12-31T00:21:48.736Z,9.278298
2022-12-31T00:22:48.692Z,9.278346
2022-12-31T00:23:48.659Z,9.278332
2022-12-31T00:24:48.649Z,9.278347
2022-12-31T00:25:48.626Z,9.278379
2022-12-31T00:26:48.611Z,9.278200
2022-12-31T00:27:48.635Z,9.278265
2022-12-31T00:28:48.577Z,9.278354
2022-12-31T00:29:48.558Z,9.278338
2022-12-31T00:30:48.568Z,9.278289
2022-12-31T00:31:48.524Z,9.278260
2022-12-31T00:32:48.539Z,9.278231
2022-12-31T00:33:48.491Z,9.278327
2022-12-31T00:34:48.464Z,9.278372
2022-12-31T00:35:48.525Z,9.278271
2022-12-31T00:36:48.452Z,9.278302
2022-12-31T00:37:48.457Z,9.278259
2022-12-31T00:38:48.412Z,9.278225
2022-12-31T00:39:48.400Z,9.278296
2022-12-31T00:40:48.373Z,9.278295
2022-12-31T00:41:48.378Z,9.278215
2022-12-31T00:42:48.396Z,9.278256
2022-12-31T00:43:48.341Z,9.278302
2022-12-31T00:44:48.306Z,9.278339
2022-12-31T00:45:48.301Z,9.278335
2022-12-31T00:46:48.273Z,9.278233
2022-12-31T00:47:48.333Z,9.278217
2022-12-31T00:48:48.245Z,9.278141
2022-12-31T00:49:48.216Z,9.278270
2022-12-31T00:50:48.194Z,9.278260
2022-12-31T00:51:48.187Z,9.278255
2022-12-31T00:52:48.259Z,9.278204
2022-12-31T00:53:48.150Z,9.278301
2022-12-31T00:54:48.138Z,9.278278
2022-12-31T00:55:48.112Z,9.278342
2022-12-31T00:56:48.101Z,9.278298
2022-12-31T00:57:48.113Z,9.278278
2022-12-31T00:58:48.073Z,9.278279
2022-12-31T00:59:48.047Z,9.278228
2022-12-31T01:00:48.030Z,9.278239
2022-12-31T01:01:48.094Z,9.278250
2022-12-31T01:02:48.106Z,9.278242
2022-12-31T01:03:47.997Z,9.278199
2022-12-31T01:04:48.005Z,9.278255
2022-12-31T01:05:47.940Z,9.278185
2022-12-31T01:06:47.928Z,9.278255
2022-12-31T01:07:47.955Z,9.278316
2022-12-31T01:08:47.900Z,9.278364
2022-12-31T01:09:47.887Z,9.278273
2022-12-31T01:10:47.856Z,9.278381
2022-12-31T01:11:47.884Z,9.278411
2022-12-31T01:12:47.862Z,9.278358
2022-12-31T01:13:47.815Z,9.278313
2022-12-31T01:14:47.787Z,9.278280
2022-12-31T01:15:47.836Z,9.278225
2022-12-31T01:16:47.752Z,9.278352
2022-12-31T01:17:47.789Z,9.278327
2022-12-31T01:18:47.724Z,9.278415
2022-12-31T01:19:47.724Z,9.278316
2022-12-31T01:20:47.714Z,9.278235
2022-12-31T01:21:47.691Z,9.278398
2022-12-31T01:22:47.684Z,9.278357
2022-12-31T01:23:47.652Z,9.278223
2022-12-31T01:24:47.630Z,9.278173
2022-12-31T01:25:47.601Z,9.278178
2022-12-31T01:26:47.591Z,9.278353
2022-12-31T01:27:47.617Z,9.278281
2022-12-31T01:28:47.557Z,9.278703
2022-12-31T01:29:47.544Z,9.278447
2022-12-31T01:30:47.547Z,9.278553
2022-12-31T01:31:47.509Z,9.278577
2022-12-31T01:32:47.584Z,9.278511
2022-12-31T01:33:47.473Z,9.278412
2022-12-31T01:34:47.451Z,9.278232
2022-12-31T01:35:47.616Z,9.278291
2022-12-31T01:36:47.424Z,9.278351
2022-12-31T01:37:47.480Z,9.278295
2022-12-31T01:38:47.383Z,9.278305
2022-12-31T01:39:47.375Z,9.278306
2022-12-31T01:40:47.376Z,9.278370
2022-12-31T01:41:47.342Z,9.278366
2022-12-31T01:42:47.360Z,9.278378
2022-12-31T01:43:47.302Z,9.278338
2022-12-31T01:44:47.374Z,9.278312
2022-12-31T01:45:47.266Z,9.278297
2022-12-31T01:46:47.259Z,9.278307
2022-12-31T01:47:47.265Z,9.278416
2022-12-31T01:48:47.213Z,9.278459
2022-12-31T01:49:47.221Z,9.278419
2022-12-31T01:50:47.173Z,9.278264
2022-12-31T01:51:47.159Z,9.278377
2022-12-31T01:52:47.177Z,9.278314
2022-12-31T01:53:47.128Z,9.278342
2022-12-31T01:54:47.116Z,9.278413
2022-12-31T01:55:47.098Z,9.278369
2022-12-31T01:56:47.088Z,9.278352
2022-12-31T01:57:47.093Z,9.278416
2022-12-31T01:58:47.043Z,9.278452
2022-12-31T01:59:47.027Z,9.278272
2022-12-31T02:00:47.007Z,9.278337
2022-12-31T02:01:47.086Z,9.278363
2022-12-31T02:02:47.066Z,9.278350
2022-12-31T02:03:46.953Z,9.278293
2022-12-31T02:04:46.935Z,9.278328
2022-12-31T02:05:46.920Z,9.278331
2022-12-31T02:06:46.908Z,9.278416
2022-12-31T02:07:46.911Z,9.278377
2022-12-31T02:08:46.863Z,9.278394
2022-12-31T02:09:46.862Z,9.278326
2022-12-31T02:10:46.829Z,9.278270
2022-12-31T02:11:46.826Z,9.278267
2022-12-31T02:12:46.835Z,9.278235
2022-12-31T02:13:46.794Z,9.278280
2022-12-31T02:14:46.768Z,9.278352
2022-12-31T02:15:46.771Z,9.278262
2022-12-31T02:16:46.724Z,9.278293
2022-12-31T02:17:46.739Z,9.278190
2022-12-31T02:18:46.696Z,9.278330
2022-12-31T02:19:46.697Z,9.278276
2022-12-31T02:20:46.654Z,9.278316
2022-12-31T02:21:46.650Z,9.278363
2022-12-31T02:22:46.656Z,9.278350
2022-12-31T02:23:46.599Z,9.278231
2022-12-31T02:24:46.600Z,9.278323
2022-12-31T02:25:46.580Z,9.278328
2022-12-31T02:26:46.560Z,9.278253
2022-12-31T02:27:46.576Z,9.278226
2022-12-31T02:28:46.543Z,9.278259
2022-12-31T02:29:46.555Z,9.278288
2022-12-31T02:30:46.495Z,9.278322
2022-12-31T02:31:46.488Z,9.278309
2022-12-31T02:32:46.484Z,9.278261
2022-12-31T02:33:46.430Z,9.278199
2022-12-31T02:34:46.421Z,9.278234
2022-12-31T02:35:46.414Z,9.278271
2022-12-31T02:36:46.391Z,9.278291
2022-12-31T02:37:46.394Z,9.278317
2022-12-31T02:38:46.347Z,9.278369
2022-12-31T02:39:46.362Z,9.278318
2022-12-31T02:40:46.313Z,9.278137
2022-12-31T02:41:46.314Z,9.278202
2022-12-31T02:42:51.534Z,9.278312
2022-12-31T02:43:48.276Z,9.278324
2022-12-31T02:44:46.255Z,9.278316
2022-12-31T02:45:46.242Z,9.278421
2022-12-31T02:46:47.249Z,9.278329
2022-12-31T02:47:46.250Z,9.278263
2022-12-31T02:48:46.209Z,9.278456
2022-12-31T02:49:46.171Z,9.278450
2022-12-31T02:50:46.171Z,9.278415
2022-12-31T02:51:46.142Z,9.278202
2022-12-31T02:52:46.159Z,9.278155
2022-12-31T02:53:46.099Z,9.278296
2022-12-31T02:54:46.115Z,9.278354
2022-12-31T02:55:46.076Z,9.278373
2022-12-31T02:56:46.063Z,9.278328
2022-12-31T02:57:46.079Z,9.278327
2022-12-31T02:58:46.027Z,9.278350
2022-12-31T02:59:46.010Z,9.278267
2022-12-31T03:00:46.023Z,9.278391
2022-12-31T03:01:46.072Z,9.278170
2022-12-31T03:02:46.041Z,9.278217
2022-12-31T03:03:45.955Z,9.278317
2022-12-31T03:04:45.927Z,9.278349
2022-12-31T03:05:45.917Z,9.278286
2022-12-31T03:06:45.892Z,9.278125
2022-12-31T03:07:45.909Z,9.278188
2022-12-31T03:08:45.855Z,9.278364
2022-12-31T03:09:45.849Z,9.278144
2022-12-31T03:10:45.827Z,9.278067
2022-12-31T03:11:45.810Z,9.278241
2022-12-31T03:12:45.817Z,9.278303
2022-12-31T03:13:45.778Z,9.278326
2022-12-31T03:14:45.754Z,9.278365
2022-12-31T03:15:45.749Z,9.278227
2022-12-31T03:16:45.730Z,9.278394
2022-12-31T03:17:45.749Z,9.278388
2022-12-31T03:18:45.705Z,9.278208
2022-12-31T03:19:45.671Z,9.278251
2022-12-31T03:20:45.667Z,9.278230
2022-12-31T03:21:45.635Z,9.278398
2022-12-31T03:22:45.644Z,9.278253
2022-12-31T03:23:45.593Z,9.278286
2022-12-31T03:24:45.592Z,9.278358
2022-12-31T03:25:45.575Z,9.278231
2022-12-31T03:26:45.556Z,9.278340
2022-12-31T03:27:45.563Z,9.278292
2022-12-31T03:28:45.518Z,9.278255
2022-12-31T03:29:45.508Z,9.278288
2022-12-31T03:30:45.483Z,9.278344
2022-12-31T03:31:45.503Z,9.278304
2022-12-31T03:32:45.488Z,9.278390
2022-12-31T03:33:45.444Z,9.278338
2022-12-31T03:34:45.416Z,9.278329
2022-12-31T03:35:45.404Z,9.278333
2022-12-31T03:36:45.380Z,9.278309
2022-12-31T03:37:45.395Z,9.278287
2022-12-31T03:38:48.591Z,9.278156
2022-12-31T03:39:47.332Z,9.278163
2022-12-31T03:40:45.312Z,9.278234
2022-12-31T03:41:45.309Z,9.278305
2022-12-31T03:42:45.318Z,9.278379
2022-12-31T03:43:45.277Z,9.278440
2022-12-31T03:44:45.262Z,9.278211
2022-12-31T03:45:45.238Z,9.278284
2022-12-31T03:46:45.238Z,9.278230
2022-12-31T03:47:45.233Z,9.278072
2022-12-31T03:48:45.188Z,9.278117
2022-12-31T03:49:45.167Z,9.277960
2022-12-31T03:50:45.173Z,9.278109
2022-12-31T03:51:45.146Z,9.278074
2022-12-31T03:52:45.191Z,9.278225
2022-12-31T03:53:45.105Z,9.277983
2022-12-31T03:54:45.095Z,9.278263
2022-12-31T03:55:45.061Z,9.278325
2022-12-31T03:56:45.045Z,9.278396
2022-12-31T03:57:45.057Z,9.278321
2022-12-31T03:58:45.014Z,9.278190
2022-12-31T03:59:45.002Z,9.277995
2022-12-31T04:00:44.998Z,9.278128
2022-12-31T04:01:45.080Z,9.278317
2022-12-31T04:02:45.029Z,9.278449
2022-12-31T04:03:44.932Z,9.278327
2022-12-31T04:04:44.903Z,9.278340
2022-12-31T04:05:44.897Z,9.278334
2022-12-31T04:06:44.883Z,9.278312
2022-12-31T04:07:44.917Z,9.278237
2022-12-31T04:08:44.832Z,9.278173
2022-12-31T04:09:44.821Z,9.278173
2022-12-31T04:10:44.805Z,9.278201
2022-12-31T04:11:44.789Z,9.278246
2022-12-31T04:12:44.813Z,9.278154
2022-12-31T04:13:44.766Z,9.278191
2022-12-31T04:14:44.746Z,9.278215
2022-12-31T04:15:44.716Z,9.278246
2022-12-31T04:16:44.791Z,9.278159
2022-12-31T04:17:44.725Z,9.278191
2022-12-31T04:18:44.679Z,9.278081
2022-12-31T04:19:44.651Z,9.278222
2022-12-31T04:20:44.642Z,9.278283
2022-12-31T04:21:44.623Z,9.278228
2022-12-31T04:22:44.662Z,9.277921
2022-12-31T04:23:44.590Z,9.277653
2022-12-31T04:24:44.564Z,9.277626
2022-12-31T04:25:44.545Z,9.277802
2022-12-31T04:26:44.549Z,9.278232
2022-12-31T04:27:44.532Z,9.277988
2022-12-31T04:28:44.536Z,9.278222
2022-12-31T04:29:44.490Z,9.278479
2022-12-31T04:30:44.467Z,9.278267
2022-12-31T04:31:44.474Z,9.278363
2022-12-31T04:32:44.470Z,9.278474
2022-12-31T04:33:44.426Z,9.278280
2022-12-31T04:34:44.396Z,9.278322
2022-12-31T04:35:44.388Z,9.278293
2022-12-31T04:36:44.363Z,9.278381
2022-12-31T04:37:44.357Z,9.278495
2022-12-31T04:38:44.391Z,9.278368
2022-12-31T04:39:44.312Z,9.278418
2022-12-31T04:40:44.291Z,9.278439
2022-12-31T04:41:44.305Z,9.278183
2022-12-31T04:42:44.267Z,9.278167
2022-12-31T04:43:44.290Z,9.278353
2022-12-31T04:44:44.240Z,9.278333
2022-12-31T04:45:44.217Z,9.278103
2022-12-31T04:46:44.212Z,9.278375
2022-12-31T04:47:44.173Z,9.278556
2022-12-31T04:48:44.189Z,9.278720
2022-12-31T04:49:44.142Z,9.278754
2022-12-31T04:50:44.130Z,9.278313
2022-12-31T04:51:44.122Z,9.278592
2022-12-31T04:52:44.103Z,9.278405
2022-12-31T04:53:44.098Z,9.278336
2022-12-31T04:54:45.062Z,9.278319
2022-12-31T04:55:44.041Z,9.278384
2022-12-31T04:56:44.040Z,9.278228
2022-12-31T04:57:44.003Z,9.278738
2022-12-31T04:58:44.029Z,9.278315
2022-12-31T04:59:44.030Z,9.278387
2022-12-31T05:00:43.964Z,9.278390
2022-12-31T05:01:44.029Z,9.278327
2022-12-31T05:02:44.056Z,9.278160
2022-12-31T05:03:43.940Z,9.278245
2022-12-31T05:04:43.898Z,9.278252
2022-12-31T05:05:43.881Z,9.278140
2022-12-31T05:06:43.864Z,9.278178
2022-12-31T05:07:43.843Z,9.278026
2022-12-31T05:08:43.850Z,9.277998
2022-12-31T05:09:43.805Z,9.278296
2022-12-31T05:10:43.798Z,9.278057
2022-12-31T05:11:43.771Z,9.278292
2022-12-31T05:12:43.769Z,9.278300
2022-12-31T05:13:43.777Z,9.278259
2022-12-31T05:14:43.734Z,9.278350
2022-12-31T05:15:43.709Z,9.278292
2022-12-31T05:16:43.753Z,9.278113
2022-12-31T05:17:43.666Z,9.278120
2022-12-31T05:18:43.687Z,9.278183
2022-12-31T05:19:43.640Z,9.277941
2022-12-31T05:20:43.621Z,9.278112
2022-12-31T05:21:43.597Z,9.278286
2022-12-31T05:22:43.588Z,9.278324
2022-12-31T05:23:43.602Z,9.278373
2022-12-31T05:24:43.566Z,9.278427
2022-12-31T05:25:43.535Z,9.278482
2022-12-31T05:26:43.535Z,9.278456
2022-12-31T05:27:43.516Z,9.278310
2022-12-31T05:28:43.526Z,9.278174
2022-12-31T05:29:43.479Z,9.278322
2022-12-31T05:30:43.483Z,9.278310
2022-12-31T05:31:43.448Z,9.278262
2022-12-31T05:32:43.416Z,9.278248
2022-12-31T05:33:43.429Z,9.278340
2022-12-31T05:34:43.392Z,9.278259
2022-12-31T05:35:43.370Z,9.278228
2022-12-31T05:36:43.344Z,9.278234
2022-12-31T05:37:43.327Z,9.278218
2022-12-31T05:38:43.372Z,9.278220
2022-12-31T05:39:43.297Z,9.278296
2022-12-31T05:40:43.289Z,9.278247
2022-12-31T05:41:43.252Z,9.278263
2022-12-31T05:42:43.311Z,9.278153
2022-12-31T05:43:43.259Z,9.278275
2022-12-31T05:44:43.212Z,9.278334
2022-12-31T05:45:43.233Z,9.278284
2022-12-31T05:46:43.192Z,9.278461
2022-12-31T05:47:43.156Z,9.278308
2022-12-31T05:48:43.177Z,9.278438
2022-12-31T05:49:43.118Z,9.278383
2022-12-31T05:50:43.122Z,9.278465
2022-12-31T05:51:43.089Z,9.278641
2022-12-31T05:52:47.413Z,9.278290
2022-12-31T05:53:44.100Z,9.278176
2022-12-31T05:54:43.038Z,9.278342
2022-12-31T05:55:43.018Z,9.278271
2022-12-31T05:56:43.005Z,9.278271
2022-12-31T05:57:43.025Z,9.278264
2022-12-31T05:58:43.014Z,9.278306
2022-12-31T05:59:42.968Z,9.278337
2022-12-31T06:00:42.940Z,9.278321
2022-12-31T06:01:42.928Z,9.278326
2022-12-31T06:02:42.952Z,9.278273
2022-12-31T06:03:42.971Z,9.278339
2022-12-31T06:04:42.864Z,9.278418
2022-12-31T06:05:42.913Z,9.278295
2022-12-31T06:06:42.855Z,9.278198
2022-12-31T06:07:42.820Z,9.278325
2022-12-31T06:08:42.824Z,9.278491
2022-12-31T06:09:42.798Z,9.278342
2022-12-31T06:10:42.782Z,9.278350
2022-12-31T06:11:42.749Z,9.278299
2022-12-31T06:12:42.742Z,9.278122
2022-12-31T06:13:42.754Z,9.278228
2022-12-31T06:14:45.738Z,9.278231
2022-12-31T06:15:43.753Z,9.278322
2022-12-31T06:16:42.675Z,9.278334
2022-12-31T06:17:42.651Z,9.278367
2022-12-31T06:18:42.654Z,9.278463
2022-12-31T06:19:42.640Z,9.278239
2022-12-31T06:20:42.597Z,9.277965
2022-12-31T06:21:42.586Z,9.278032
2022-12-31T06:22:42.582Z,9.278334
2022-12-31T06:23:42.580Z,9.278387
2022-12-31T06:24:42.582Z,9.278462
2022-12-31T06:25:42.530Z,9.278465
2022-12-31T06:26:42.499Z,9.278459
2022-12-31T06:27:42.490Z,9.278380
2022-12-31T06:28:42.507Z,9.278484
2022-12-31T06:29:42.455Z,9.278373
2022-12-31T06:30:42.433Z,9.278314
2022-12-31T06:31:42.422Z,9.278410
2022-12-31T06:32:42.420Z,9.278417
2022-12-31T06:33:42.438Z,9.278337
2022-12-31T06:34:42.364Z,9.278449
2022-12-31T06:35:42.363Z,9.278394
2022-12-31T06:36:42.341Z,9.278419
2022-12-31T06:37:42.329Z,9.278416
2022-12-31T06:38:42.327Z,9.278353
2022-12-31T06:39:42.273Z,9.278462
2022-12-31T06:40:42.291Z,9.278502
2022-12-31T06:41:42.251Z,9.278388
2022-12-31T06:42:42.236Z,9.278432
2022-12-31T06:43:42.254Z,9.278369
2022-12-31T06:44:42.203Z,9.278285
2022-12-31T06:45:42.190Z,9.278247
2022-12-31T06:46:42.200Z,9.278131
2022-12-31T06:47:42.148Z,9.278139
2022-12-31T06:48:42.169Z,9.278253
2022-12-31T06:49:43.122Z,9.278335
2022-12-31T06:50:42.100Z,9.278306
2022-12-31T06:51:42.098Z,9.278309
2022-12-31T06:52:42.064Z,9.278239
2022-12-31T06:53:42.192Z,9.278356
2022-12-31T06:54:42.069Z,9.278352
2022-12-31T06:55:42.024Z,9.278293
2022-12-31T06:56:42.000Z,9.278370
2022-12-31T06:57:41.980Z,9.278393
2022-12-31T06:58:41.995Z,9.278356
2022-12-31T06:59:41.958Z,9.278332
2022-12-31T07:00:41.939Z,9.278258
2022-12-31T07:01:42.044Z,9.278438
2022-12-31T07:02:41.999Z,9.278359
2022-12-31T07:03:41.923Z,9.278351
2022-12-31T07:04:41.878Z,9.278335
2022-12-31T07:05:41.865Z,9.278336
2022-12-31T07:06:41.856Z,9.278456
2022-12-31T07:07:41.822Z,9.278514
2022-12-31T07:08:41.828Z,9.278537
2022-12-31T07:09:41.788Z,9.278512
2022-12-31T07:10:41.768Z,9.278542
2022-12-31T07:11:41.751Z,9.278503
2022-12-31T07:12:41.724Z,9.278483
2022-12-31T07:13:42.744Z,9.278481
2022-12-31T07:14:41.696Z,9.278468
2022-12-31T07:15:41.729Z,9.278389
2022-12-31T07:16:41.685Z,9.278528
2022-12-31T07:17:42.687Z,9.278337
2022-12-31T07:18:41.663Z,9.278477
2022-12-31T07:19:41.634Z,9.278414
2022-12-31T07:20:41.592Z,9.278414
2022-12-31T07:21:41.587Z,9.278419
2022-12-31T07:22:41.551Z,9.278493
2022-12-31T07:23:41.593Z,9.278419
2022-12-31T07:24:41.529Z,9.278429
2022-12-31T07:25:41.531Z,9.278340
2022-12-31T07:26:41.484Z,9.278410
2022-12-31T07:27:41.471Z,9.278394
2022-12-31T07:28:41.492Z,9.278387
2022-12-31T07:29:41.465Z,9.278372
2022-12-31T07:30:41.418Z,9.278313
2022-12-31T07:31:41.435Z,9.278179
2022-12-31T07:32:41.380Z,9.278271
2022-12-31T07:33:41.365Z,9.278406
2022-12-31T07:34:41.379Z,9.278444
2022-12-31T07:35:41.326Z,9.278417
2022-12-31T07:36:41.326Z,9.278352
2022-12-31T07:37:41.296Z,9.278356
2022-12-31T07:38:41.380Z,9.278245
2022-12-31T07:39:41.302Z,9.278330
2022-12-31T07:40:41.304Z,9.278351
2022-12-31T07:41:41.237Z,9.278481
2022-12-31T07:42:41.218Z,9.278367
2022-12-31T07:43:41.201Z,9.278239
2022-12-31T07:44:41.208Z,9.278252
2022-12-31T07:45:41.168Z,9.278374
2022-12-31T07:46:41.303Z,9.278335
2022-12-31T07:47:41.149Z,9.278296
2022-12-31T07:48:41.138Z,9.278349
2022-12-31T07:49:41.119Z,9.278232
2022-12-31T07:50:41.072Z,9.278343
2022-12-31T07:51:42.079Z,9.278232
2022-12-31T07:52:41.050Z,9.278265
2022-12-31T07:53:41.043Z,9.278342
2022-12-31T07:54:41.064Z,9.278410
2022-12-31T07:55:41.023Z,9.278307
2022-12-31T07:56:41.023Z,9.278361
2022-12-31T07:57:40.966Z,9.278477
2022-12-31T07:58:40.956Z,9.278491
2022-12-31T07:59:40.978Z,9.278233
2022-12-31T08:00:40.966Z,9.278342
2022-12-31T08:01:41.051Z,9.278359
2022-12-31T08:02:40.885Z,9.278547
2022-12-31T08:03:40.858Z,9.278566
2022-12-31T08:04:40.883Z,9.278452
2022-12-31T08:05:40.836Z,9.278203
2022-12-31T08:06:40.847Z,9.278291
2022-12-31T08:07:40.791Z,9.278317
2022-12-31T08:08:40.780Z,9.278224
2022-12-31T08:09:40.800Z,9.278254
2022-12-31T08:10:40.749Z,9.278316
2022-12-31T08:11:40.752Z,9.278302
2022-12-31T08:12:40.712Z,9.278306
2022-12-31T08:13:40.698Z,9.278372
2022-12-31T08:14:40.712Z,9.278438
2022-12-31T08:15:40.669Z,9.278409
2022-12-31T08:16:40.693Z,9.278165
2022-12-31T08:17:40.629Z,9.278126
2022-12-31T08:18:40.609Z,9.278286
2022-12-31T08:19:40.620Z,9.278317
2022-12-31T08:20:40.574Z,9.278376
2022-12-31T08:21:40.579Z,9.278468
2022-12-31T08:22:40.569Z,9.278353
2022-12-31T08:23:40.533Z,9.278428
2022-12-31T08:24:40.536Z,9.278419
2022-12-31T08:25:40.494Z,9.278470
2022-12-31T08:26:40.471Z,9.278476
2022-12-31T08:27:40.467Z,9.278363
2022-12-31T08:28:40.493Z,9.278431
2022-12-31T08:29:40.465Z,9.278342
2022-12-31T08:30:40.417Z,9.278337
2022-12-31T08:31:40.442Z,9.278288
2022-12-31T08:32:40.395Z,9.278264
2022-12-31T08:33:40.381Z,9.278376
2022-12-31T08:34:40.399Z,9.278619
2022-12-31T08:35:40.335Z,9.278548
2022-12-31T08:36:40.319Z,9.278635
2022-12-31T08:37:40.306Z,9.278625
2022-12-31T08:38:40.272Z,9.278480
2022-12-31T08:39:40.294Z,9.278618
2022-12-31T08:40:40.261Z,9.278792
2022-12-31T08:41:42.890Z,9.278728
2022-12-31T08:42:41.218Z,9.278655
2022-12-31T08:43:40.213Z,9.278589
2022-12-31T08:44:40.212Z,9.278261
2022-12-31T08:45:40.212Z,9.278164
2022-12-31T08:46:40.171Z,9.278027
2022-12-31T08:47:40.128Z,9.278189
2022-12-31T08:48:40.140Z,9.278509
2022-12-31T08:49:40.129Z,9.278509
2022-12-31T08:50:40.093Z,9.278618
2022-12-31T08:51:40.057Z,9.278689
2022-12-31T08:52:40.047Z,9.278861
2022-12-31T08:53:40.023Z,9.278820
2022-12-31T08:54:40.061Z,9.278606
2022-12-31T08:55:39.986Z,9.278323
2022-12-31T08:56:39.985Z,9.278189
2022-12-31T08:57:39.972Z,9.278379
2022-12-31T08:58:39.942Z,9.278374
2022-12-31T08:59:43.194Z,9.278310
2022-12-31T09:00:40.068Z,9.278594
2022-12-31T09:01:39.968Z,9.278394
2022-12-31T09:02:44.623Z,9.278515
2022-12-31T09:03:41.857Z,9.278491
2022-12-31T09:04:39.864Z,9.278310
2022-12-31T09:05:39.821Z,9.278374
2022-12-31T09:06:39.915Z,9.278485
2022-12-31T09:07:39.797Z,9.278486
2022-12-31T09:08:39.807Z,9.278342
2022-12-31T09:09:39.795Z,9.278374
2022-12-31T09:10:39.751Z,9.278360
2022-12-31T09:11:39.731Z,9.278465
2022-12-31T09:12:39.702Z,9.278443
2022-12-31T09:13:39.708Z,9.278298
2022-12-31T09:14:39.711Z,9.278424
2022-12-31T09:15:39.660Z,9.278507
2022-12-31T09:16:39.662Z,9.278361
2022-12-31T09:17:39.632Z,9.278376
2022-12-31T09:18:39.607Z,9.278456
2022-12-31T09:19:39.627Z,9.278176
2022-12-31T09:20:44.090Z,9.278030
2022-12-31T09:21:41.570Z,9.278417
2022-12-31T09:22:39.549Z,9.278472
2022-12-31T09:23:39.525Z,9.278565
2022-12-31T09:24:39.571Z,9.278406
2022-12-31T09:25:39.488Z,9.278472
2022-12-31T09:26:39.472Z,9.278438
2022-12-31T09:27:39.451Z,9.278379
2022-12-31T09:28:39.441Z,9.278593
2022-12-31T09:29:39.451Z,9.278574
2022-12-31T09:30:39.400Z,9.278642
2022-12-31T09:31:39.477Z,9.278470
2022-12-31T09:32:39.366Z,9.278944
2022-12-31T09:33:39.480Z,9.278770
2022-12-31T09:35:12.941Z,9.278944
2022-12-31T09:35:39.357Z,9.278300
2022-12-31T09:36:39.328Z,9.278547
2022-12-31T09:37:39.362Z,9.278274
2022-12-31T09:38:39.301Z,9.277987
2022-12-31T09:39:39.324Z,9.277987
2022-12-31T09:40:39.238Z,9.278423
2022-12-31T09:41:39.225Z,9.278431
2022-12-31T09:42:39.202Z,9.278189
2022-12-31T09:43:39.192Z,9.278308
2022-12-31T09:44:39.209Z,9.278125
2022-12-31T09:45:39.183Z,9.278734
2022-12-31T09:46:39.130Z,9.278492
2022-12-31T09:47:39.119Z,9.278481
2022-12-31T09:48:40.102Z,9.278356
2022-12-31T09:49:39.149Z,9.278518
2022-12-31T09:50:39.067Z,9.278401
2022-12-31T09:51:39.046Z,9.278348
2022-12-31T09:52:39.052Z,9.278008
2022-12-31T09:53:39.227Z,9.278038
2022-12-31T09:54:39.150Z,9.278065
2022-12-31T09:55:39.275Z,9.277945
2022-12-31T09:56:38.982Z,9.277963
2022-12-31T09:57:38.954Z,9.278429
2022-12-31T09:58:38.957Z,9.278377
2022-12-31T09:59:38.953Z,9.278376
2022-12-31T10:00:39.073Z,9.278332
2022-12-31T10:01:39.094Z,9.278382
2022-12-31T10:02:39.115Z,9.278296
2022-12-31T10:03:38.839Z,9.278298
2022-12-31T10:04:38.857Z,9.278376
2022-12-31T10:05:38.810Z,9.278258
2022-12-31T10:06:38.801Z,9.278228
2022-12-31T10:07:38.795Z,9.278266
2022-12-31T10:08:38.760Z,9.278326
2022-12-31T10:09:38.787Z,9.278385
2022-12-31T10:10:38.728Z,9.278377
2022-12-31T10:11:38.719Z,9.278340
2022-12-31T10:12:38.695Z,9.278274
2022-12-31T10:13:38.684Z,9.278395
2022-12-31T10:14:43.691Z,9.278373
2022-12-31T10:15:40.651Z,9.278475
2022-12-31T10:16:38.686Z,9.278556
2022-12-31T10:17:38.635Z,9.278511
2022-12-31T10:18:38.596Z,9.278384
2022-12-31T10:19:38.642Z,9.278521
2022-12-31T10:20:44.928Z,9.278420
2022-12-31T10:21:40.559Z,9.278398
2022-12-31T10:22:38.571Z,9.278381
2022-12-31T10:23:38.529Z,9.278334
2022-12-31T10:24:38.565Z,9.278220
2022-12-31T10:25:39.804Z,9.278333
2022-12-31T10:26:38.478Z,9.278396
2022-12-31T10:27:38.450Z,9.278318
2022-12-31T10:28:38.433Z,9.278354
2022-12-31T10:29:38.439Z,9.278307
2022-12-31T10:30:38.474Z,9.278381
2022-12-31T10:31:38.382Z,9.278317
2022-12-31T10:32:38.372Z,9.278353
2022-12-31T10:33:38.369Z,9.278369
2022-12-31T10:34:38.350Z,9.278329
2022-12-31T10:35:38.354Z,9.278319
2022-12-31T10:36:38.385Z,9.278335
2022-12-31T10:37:38.319Z,9.278423
2022-12-31T10:38:38.291Z,9.278424
2022-12-31T10:39:38.279Z,9.278430
2022-12-31T10:40:38.799Z,9.278369
2022-12-31T10:41:38.235Z,9.278352
2022-12-31T10:42:38.224Z,9.278413
2022-12-31T10:43:38.199Z,9.278406
2022-12-31T10:44:38.203Z,9.278421
2022-12-31T10:45:38.194Z,9.278385
2022-12-31T10:46:38.211Z,9.278430
2022-12-31T10:47:38.123Z,9.278413
2022-12-31T10:48:38.118Z,9.278304
2022-12-31T10:49:38.095Z,9.278470
2022-12-31T10:50:38.106Z,9.278364
2022-12-31T10:51:38.075Z,9.278171
2022-12-31T10:52:41.727Z,9.278483
2022-12-31T10:53:39.033Z,9.278303
2022-12-31T10:54:38.012Z,9.278373
2022-12-31T10:55:38.059Z,9.278202
2022-12-31T10:56:37.986Z,9.278206
2022-12-31T10:57:37.970Z,9.278224
2022-12-31T10:58:37.947Z,9.278097
2022-12-31T10:59:37.925Z,9.278153
2022-12-31T11:00:37.978Z,9.278107
2022-12-31T11:01:37.942Z,9.277959
2022-12-31T11:02:38.057Z,9.278275
2022-12-31T11:03:37.895Z,9.278350
2022-12-31T11:04:37.840Z,9.278321
2022-12-31T11:05:37.867Z,9.278275
2022-12-31T11:06:37.796Z,9.278338
2022-12-31T11:07:37.802Z,9.278419
2022-12-31T11:08:37.798Z,9.278339
2022-12-31T11:09:37.762Z,9.278264
2022-12-31T11:10:37.767Z,9.278317
2022-12-31T11:11:37.723Z,9.278351
2022-12-31T11:12:37.725Z,9.278427
2022-12-31T11:13:37.704Z,9.278439
2022-12-31T11:14:37.736Z,9.278313
2022-12-31T11:15:37.717Z,9.278479
2022-12-31T11:16:37.647Z,9.278356
2022-12-31T11:17:37.621Z,9.278378
2022-12-31T11:18:37.609Z,9.278341
2022-12-31T11:19:37.608Z,9.278378
2022-12-31T11:20:37.614Z,9.278382
2022-12-31T11:21:41.413Z,9.278429
2022-12-31T11:22:38.663Z,9.278338
2022-12-31T11:23:37.529Z,9.278266
2022-12-31T11:24:37.519Z,9.278185
2022-12-31T11:25:37.519Z,9.278093
2022-12-31T11:26:37.487Z,9.278197
2022-12-31T11:27:37.469Z,9.278257
2022-12-31T11:28:37.436Z,9.278378
2022-12-31T11:29:37.437Z,9.278443
2022-12-31T11:30:37.438Z,9.278431
2022-12-31T11:31:37.389Z,9.278389
2022-12-31T11:32:37.367Z,9.278401
2022-12-31T11:33:37.361Z,9.278462
2022-12-31T11:34:37.320Z,9.278325
2022-12-31T11:35:38.353Z,9.278392
2022-12-31T11:36:37.352Z,9.278381
2022-12-31T11:37:37.283Z,9.278341
2022-12-31T11:38:37.315Z,9.278262
2022-12-31T11:39:37.249Z,9.278292
2022-12-31T11:40:37.262Z,9.278400
2022-12-31T11:41:37.218Z,9.278388
2022-12-31T11:42:37.199Z,9.278383
2022-12-31T11:43:37.198Z,9.278437
2022-12-31T11:44:37.169Z,9.278438